Terminal Aerodrome Forecast
Issued by NWS Bismarck, ND

Home | Current Version | Previous Version | Graphics & Text | Print | Product List | Glossary On
Versions: 1 2 3 4 5 6 7 8 9 10 11 12 13 14 15 16 17
000
FTUS43 KBIS 251700
TAFBIS
TAF
KBIS 251729Z 2518/2618 33011KT P6SM -SN OVC015
     FM260200 33012KT P6SM SCT015 BKN035
     FM261400 33006KT P6SM SCT035 BKN150=

USA.gov is the U.S. government's official web portal to all federal, state and local government web resources and services.